Time;durP1;ratioP1;P1;durP2;ratioP2;P2;SDS_P1;SDS_P2;PMS_P1;PMS_P2;Temp;Humidity;BMP_temperature;BMP_pressure;BME280_temperature;BME280_humidity;BME280_pressure;Samples;Min_cycle;Max_cycle;Signal;HPM_P1;HPM_P2
2023/08/30 00:00:54;;;;;;;;;4.67;4.67;;;;;19.60;70.09;100323.13;4855846;29;45237;-80
2023/08/30 00:03:19;;;;;;;;;5.67;5.00;;;;;19.65;70.15;100331.06;4838905;29;44798;-79
2023/08/30 00:05:45;;;;;;;;;6.67;6.00;;;;;19.68;70.22;100317.50;4840014;29;45014;-80
2023/08/30 00:08:10;;;;;;;;;6.33;6.00;;;;;19.68;70.43;100315.66;4839199;29;44893;-80
2023/08/30 00:10:37;;;;;;;;;9.00;7.00;;;;;19.74;70.10;100320.91;4839520;29;47114;-80
2023/08/30 00:13:04;;;;;;;;;5.00;4.67;;;;;19.73;70.32;100313.75;4856017;29;44805;-79
2023/08/30 00:15:30;;;;;;;;;7.00;7.00;;;;;19.73;70.12;100313.75;4854595;29;44723;-80
2023/08/30 00:17:56;;;;;;;;;5.33;5.33;;;;;19.77;69.91;100312.75;4855059;29;44905;-81
2023/08/30 00:20:21;;;;;;;;;5.00;5.00;;;;;19.78;70.25;100309.09;4853989;29;44969;-81
2023/08/30 00:22:49;;;;;;;;;6.33;5.00;;;;;19.87;70.01;100307.03;4837376;29;44913;-80
2023/08/30 00:25:16;;;;;;;;;5.67;5.00;;;;;19.85;70.06;100298.09;4854616;29;45257;-80
2023/08/30 00:27:41;;;;;;;;;4.67;4.67;;;;;19.85;69.91;100298.97;4838875;29;44869;-80
2023/08/30 00:30:08;;;;;;;;;6.00;5.33;;;;;19.90;69.75;100291.63;4855554;29;45192;-80
2023/08/30 00:32:34;;;;;;;;;7.00;6.00;;;;;19.88;69.48;100295.31;4838798;29;44937;-82
2023/08/30 00:34:59;;;;;;;;;4.67;4.67;;;;;19.94;69.40;100292.44;4854537;29;44794;-80
2023/08/30 00:37:25;;;;;;;;;3.00;3.00;;;;;19.97;69.19;100298.59;4854577;29;44966;-80
2023/08/30 00:39:53;;;;;;;;;6.00;5.33;;;;;20.15;69.27;100282.75;4839688;29;45145;-80
2023/08/30 00:42:19;;;;;;;;;5.67;5.00;;;;;20.02;69.22;100284.97;4840125;29;44853;-80
2023/08/30 00:44:44;;;;;;;;;4.67;3.67;;;;;20.02;69.33;100279.56;4839095;29;44826;-81
2023/08/30 00:47:10;;;;;;;;;6.67;5.00;;;;;20.05;69.28;100282.16;4855503;29;44867;-80
2023/08/30 00:49:36;;;;;;;;;5.00;5.00;;;;;20.08;69.61;100287.47;4839242;29;47211;-80
2023/08/30 00:52:05;;;;;;;;;7.00;6.67;;;;;20.09;70.12;100264.94;4839103;29;44802;-80
2023/08/30 00:54:31;;;;;;;;;8.00;8.00;;;;;20.07;69.75;100274.00;4855507;29;44997;-79
2023/08/30 00:56:57;;;;;;;;;6.00;5.00;;;;;20.05;70.02;100276.75;4856088;29;44813;-80
2023/08/30 00:59:24;;;;;;;;;7.00;6.67;;;;;20.05;70.38;100267.78;4838433;29;47366;-81
2023/08/30 01:01:49;;;;;;;;;7.00;7.00;;;;;20.00;70.75;100262.53;4838176;29;45806;-80
2023/08/30 01:04:14;;;;;;;;;7.00;7.00;;;;;19.97;70.38;100265.31;4836763;29;44808;-80
2023/08/30 01:06:41;;;;;;;;;7.33;6.00;;;;;20.02;70.93;100260.69;4851442;29;45336;-80
2023/08/30 01:09:07;;;;;;;;;8.67;6.00;;;;;19.90;71.07;100259.25;4835628;29;47270;-80
2023/08/30 01:11:41;;;;;;;;;9.00;7.67;;;;;20.06;71.15;100256.06;4836265;29;45267;-80
2023/08/30 01:14:09;;;;;;;;;8.33;7.00;;;;;19.92;71.29;100260.09;4836846;29;45397;-80
2023/08/30 01:16:38;;;;;;;;;10.00;7.67;;;;;20.07;71.65;100242.50;4837999;29;44864;-80
2023/08/30 01:19:25;;;;;;;;;6.00;6.00;;;;;20.11;71.57;100246.84;4836499;29;47396;-80
2023/08/30 01:22:11;;;;;;;;;9.67;8.00;;;;;20.17;71.84;100248.47;4853958;29;44886;-81
2023/08/30 01:25:17;;;;;;;;;6.00;4.67;;;;;20.26;71.12;100244.56;4836203;29;44826;-81
2023/08/30 01:27:47;;;;;;;;;7.00;7.00;;;;;20.15;71.49;100244.94;4854531;29;44863;-81
2023/08/30 01:30:15;;;;;;;;;5.33;5.33;;;;;20.14;71.68;100241.38;4837520;29;47800;-81
2023/08/30 01:32:46;;;;;;;;;6.00;6.00;;;;;20.17;71.77;100232.28;4836957;29;44982;-80
2023/08/30 01:35:46;;;;;;;;;5.00;5.00;;;;;20.31;71.28;100232.69;4837186;29;44870;-80
2023/08/30 01:38:14;;;;;;;;;3.25;3.25;;;;;20.08;71.30;100236.19;4856127;29;44973;-81
2023/08/30 01:40:41;;;;;;;;;6.50;5.00;;;;;20.14;71.37;100217.06;4838636;29;47385;-80
2023/08/30 01:43:08;;;;;;;;;4.00;4.00;;;;;20.12;70.91;100218.06;4837889;29;44848;-81
2023/08/30 01:45:41;;;;;;;;;4.00;4.00;;;;;20.35;70.62;100230.78;4838960;29;44855;-81
2023/08/30 01:48:10;;;;;;;;;3.50;3.50;;;;;20.31;70.73;100213.78;4838729;29;44826;-80
2023/08/30 01:50:44;;;;;;;;;4.00;4.00;;;;;20.27;70.48;100216.66;4837560;29;47291;-81
2023/08/30 01:53:14;;;;;;;;;4.50;4.50;;;;;20.41;69.92;100218.88;4854514;29;44863;-80
2023/08/30 01:55:39;;;;;;;;;5.50;4.50;;;;;20.23;69.89;100217.69;4853996;29;44889;-82
2023/08/30 01:58:06;;;;;;;;;3.00;3.00;;;;;20.27;69.87;100217.53;4838024;29;44867;-81
2023/08/30 02:00:32;;;;;;;;;4.00;4.00;;;;;20.26;69.64;100212.16;4854228;29;45085;-81
2023/08/30 02:02:57;;;;;;;;;4.00;4.00;;;;;20.27;69.23;100205.84;4838920;29;44848;-81
2023/08/30 02:05:25;;;;;;;;;5.75;5.00;;;;;20.39;68.92;100219.81;4856878;29;45473;-81
2023/08/30 02:07:59;;;;;;;;;3.00;3.00;;;;;20.37;68.77;100218.09;4856782;29;45350;-81
2023/08/30 02:10:31;;;;;;;;;2.00;2.00;;;;;20.51;68.60;100215.78;4839917;29;47034;-81
2023/08/30 02:13:46;;;;;;;;;4.50;3.00;;;;;20.67;68.22;100210.75;4855709;29;44889;-81
2023/08/30 02:16:13;;;;;;;;;4.25;4.25;;;;;20.50;68.59;100214.03;4853989;29;45307;-81
2023/08/30 02:18:40;;;;;;;;;4.00;3.67;;;;;20.45;68.54;100207.91;4854015;29;45219;-81
2023/08/30 02:21:05;;;;;;;;;4.33;4.00;;;;;20.45;68.62;100207.91;4856093;29;45668;-81
2023/08/30 02:23:31;;;;;;;;;6.33;4.67;;;;;20.41;68.41;100208.94;4823563;29;45185;-81
2023/08/30 02:25:59;;;;;;;;;4.00;4.00;;;;;20.42;68.67;100210.72;4855019;29;45169;-81
2023/08/30 02:28:26;;;;;;;;;4.33;4.33;;;;;20.44;68.32;100208.84;4853479;29;44766;-81
2023/08/30 02:30:53;;;;;;;;;4.00;3.67;;;;;20.58;68.06;100202.94;4852901;29;45683;-81
2023/08/30 02:33:20;;;;;;;;;4.00;4.00;;;;;20.61;67.62;100196.59;4854520;29;44736;-81
2023/08/30 02:35:45;;;;;;;;;4.00;3.67;;;;;20.67;67.58;100197.25;4851858;29;45407;-79
2023/08/30 02:38:11;;;;;;;;;5.67;4.33;;;;;20.70;67.44;100189.03;4837855;29;44939;-79
2023/08/30 02:40:36;;;;;;;;;2.67;2.67;;;;;20.70;67.25;100189.03;4853157;29;46269;-80
2023/08/30 02:43:02;;;;;;;;;5.00;5.00;;;;;20.74;67.02;100192.50;4854118;29;45262;-80
2023/08/30 02:45:27;;;;;;;;;2.67;2.67;;;;;20.70;66.74;100186.34;4853316;29;44835;-81
2023/08/30 02:47:56;;;;;;;;;3.67;3.67;;;;;20.81;66.57;100175.13;4839033;29;44814;-80
2023/08/30 02:50:26;;;;;;;;;4.00;4.00;;;;;20.68;66.86;100185.53;4839220;29;45048;-81
2023/08/30 02:52:52;;;;;;;;;3.75;3.75;;;;;20.63;66.67;100186.63;4856023;29;45266;-81
2023/08/30 02:55:18;;;;;;;;;4.00;4.00;;;;;20.67;66.70;100209.88;4838412;29;44740;-81
2023/08/30 02:57:43;;;;;;;;;5.50;5.50;;;;;20.68;66.74;100207.13;4840240;29;44732;-81
2023/08/30 03:00:09;;;;;;;;;4.00;4.00;;;;;20.68;67.02;100207.13;4856382;29;44991;-81
2023/08/30 03:02:35;;;;;;;;;5.00;3.00;;;;;20.64;66.97;100196.47;4839378;29;44838;-81
2023/08/30 03:05:00;;;;;;;;;3.50;2.75;;;;;20.66;67.10;100197.28;4839518;29;44762;-81
2023/08/30 03:07:28;;;;;;;;;3.50;3.50;;;;;20.73;67.07;100191.63;4839399;29;44759;-81
2023/08/30 03:09:54;;;;;;;;;5.50;4.50;;;;;20.63;67.14;100192.91;4839496;29;47298;-81
2023/08/30 03:12:20;;;;;;;;;4.25;4.25;;;;;20.68;67.13;100201.72;4855273;29;45415;-81
2023/08/30 03:14:46;;;;;;;;;3.67;3.67;;;;;20.63;67.57;100202.81;4840787;29;44994;-81
2023/08/30 03:17:11;;;;;;;;;3.50;3.50;;;;;20.62;67.93;100195.63;4857952;29;44747;-81
2023/08/30 03:19:37;;;;;;;;;5.00;4.00;;;;;20.58;67.75;100193.06;4841297;29;45297;-81
2023/08/30 03:22:02;;;;;;;;;4.00;4.00;;;;;20.58;68.00;100187.66;4841816;29;44763;-81
2023/08/30 03:24:28;;;;;;;;;4.00;4.00;;;;;20.54;68.57;100176.97;4859308;29;44762;-81
2023/08/30 03:26:53;;;;;;;;;3.50;3.50;;;;;20.56;68.62;100176.00;4858640;29;44847;-81
2023/08/30 03:29:19;;;;;;;;;4.00;4.00;;;;;20.58;69.16;100184.97;4858164;29;45223;-81
2023/08/30 03:31:44;;;;;;;;;6.00;5.00;;;;;20.61;69.19;100177.69;4858065;29;44727;-81
2023/08/30 03:34:18;;;;;;;;;4.00;3.25;;;;;20.58;69.33;100178.63;4841347;29;44750;-81
2023/08/30 03:40:06;;;;;;;;;6.50;4.75;;;;;20.47;70.28;100170.03;4856973;29;45027;-80
2023/08/30 03:42:31;;;;;;;;;4.00;4.00;;;;;20.47;70.25;100175.44;4840210;29;44840;-81
2023/08/30 03:44:57;;;;;;;;;5.75;5.50;;;;;20.48;70.58;100171.78;4840577;29;45019;-81
2023/08/30 03:47:22;;;;;;;;;5.75;3.50;;;;;20.48;70.43;100171.78;4841175;29;44841;-81
2023/08/30 03:49:53;;;;;;;;;5.00;5.00;;;;;20.66;70.79;100165.75;4841456;29;46871;-81
2023/08/30 03:52:19;;;;;;;;;4.75;4.75;;;;;20.46;70.74;100161.06;4840995;29;44838;-81
2023/08/30 03:54:44;;;;;;;;;5.00;5.00;;;;;20.47;70.54;100170.03;4840323;29;45392;-81
2023/08/30 03:57:10;;;;;;;;;4.25;3.00;;;;;20.46;70.83;100163.75;4838505;29;44886;-81
2023/08/30 03:59:35;;;;;;;;;6.00;4.00;;;;;20.43;71.01;100158.47;4855132;29;45184;-81
2023/08/30 04:02:00;;;;;;;;;5.25;3.00;;;;;20.47;71.16;100159.25;4840507;29;44982;-80
2023/08/30 04:04:26;;;;;;;;;0.00;0.00;;;;;20.47;71.08;100162.81;4856795;29;44700;-80
2023/08/30 04:06:51;;;;;;;;;3.00;3.00;;;;;20.45;71.04;100164.69;4836179;29;45132;-81
2023/08/30 04:09:17;;;;;;;;;5.00;5.00;;;;;20.47;71.10;100162.81;4853331;29;45183;-81
2023/08/30 04:11:43;;;;;;;;;3.75;3.75;;;;;20.54;71.26;100161.66;4854548;29;44841;-81
2023/08/30 04:14:09;;;;;;;;;6.00;4.25;;;;;20.46;71.20;100152.97;4853630;29;44837;-81
2023/08/30 04:16:35;;;;;;;;;5.00;4.00;;;;;20.43;71.28;100155.75;4854593;29;44787;-81
2023/08/30 04:19:01;;;;;;;;;4.50;4.50;;;;;20.40;71.39;100153.19;4853989;29;45320;-81
2023/08/30 04:21:26;;;;;;;;;7.00;4.25;;;;;20.37;71.42;100155.97;4854481;29;44884;-81
2023/08/30 04:23:52;;;;;;;;;7.00;5.00;;;;;20.35;71.68;100144.34;4853948;29;44832;-81
2023/08/30 04:26:17;;;;;;;;;6.00;6.00;;;;;20.32;71.48;100141.75;4853817;29;44838;-80
2023/08/30 04:28:46;;;;;;;;;8.00;7.00;;;;;20.49;71.94;100144.72;4822061;29;46989;-81
2023/08/30 04:31:11;;;;;;;;;5.00;5.00;;;;;20.29;71.67;100136.47;4834951;29;44909;-80
2023/08/30 04:33:36;;;;;;;;;8.00;6.33;;;;;20.30;72.19;100139.13;4851771;29;45082;-80
2023/08/30 04:36:04;;;;;;;;;3.00;3.00;;;;;20.35;71.98;100133.53;4834726;29;45391;-80
2023/08/30 04:38:33;;;;;;;;;3.67;3.67;;;;;20.30;72.28;100135.50;4836188;29;47348;-80
2023/08/30 04:41:02;;;;;;;;;4.00;4.00;;;;;20.26;72.41;100128.47;4836522;29;44946;-81
2023/08/30 04:43:28;;;;;;;;;5.00;4.00;;;;;20.35;72.09;100128.16;4835590;29;44739;-81
2023/08/30 04:45:53;;;;;;;;;6.00;6.00;;;;;20.31;72.39;100132.75;4836551;29;44757;-80
2023/08/30 04:48:19;;;;;;;;;4.33;4.00;;;;;20.25;72.58;100130.28;4854538;29;45012;-81
2023/08/30 04:50:51;;;;;;;;;5.33;5.00;;;;;20.21;72.65;100125.06;4853655;29;44771;-81
2023/08/30 04:53:20;;;;;;;;;4.67;3.00;;;;;20.41;72.77;100136.03;4837862;29;44755;-81
2023/08/30 04:55:45;;;;;;;;;4.67;4.33;;;;;20.14;73.25;100119.00;4854254;29;44912;-81
2023/08/30 04:58:10;;;;;;;;;4.00;4.00;;;;;20.18;72.75;100126.94;4838699;29;47272;-80
2023/08/30 05:00:36;;;;;;;;;7.67;6.33;;;;;20.18;73.02;100124.22;4839671;29;44913;-80
2023/08/30 05:03:01;;;;;;;;;6.33;5.33;;;;;20.21;73.13;100125.06;4856128;29;44904;-80
2023/08/30 05:05:26;;;;;;;;;6.00;5.00;;;;;20.30;72.90;100125.63;4838978;29;45030;-80
2023/08/30 05:07:52;;;;;;;;;5.00;5.00;;;;;20.29;72.79;100128.38;4855559;29;44995;-80
2023/08/30 05:10:17;;;;;;;;;5.00;5.00;;;;;20.33;72.59;100121.91;4856274;29;44810;-80
2023/08/30 05:12:47;;;;;;;;;6.00;5.67;;;;;20.34;73.04;100126.38;4839945;29;45324;-80
2023/08/30 05:15:13;;;;;;;;;4.33;4.33;;;;;20.33;73.15;100124.63;4856495;29;44782;-80
2023/08/30 05:17:38;;;;;;;;;6.00;6.00;;;;;20.33;73.19;100127.31;4839283;29;47049;-80
2023/08/30 05:20:04;;;;;;;;;4.00;4.00;;;;;20.32;73.25;100122.84;4857645;29;45118;-79
2023/08/30 05:22:32;;;;;;;;;5.25;4.25;;;;;20.28;73.22;100132.00;4857850;29;45069;-80
2023/08/30 05:24:59;;;;;;;;;6.00;5.00;;;;;20.40;73.62;100131.56;4839220;29;44945;-80
2023/08/30 05:27:24;;;;;;;;;6.00;6.00;;;;;20.26;73.69;100131.16;4837894;29;47289;-81
2023/08/30 05:29:50;;;;;;;;;6.00;6.00;;;;;20.27;74.06;100124.84;4837638;29;44965;-80
2023/08/30 05:32:15;;;;;;;;;4.33;4.33;;;;;20.31;73.91;100131.91;4856202;29;44751;-81
2023/08/30 05:34:40;;;;;;;;;5.00;3.33;;;;;20.34;73.85;100124.56;4856528;29;44904;-81
2023/08/30 05:37:43;;;;;;;;;5.33;4.67;;;;;20.64;73.49;100128.91;4837579;29;47264;-81
2023/08/30 05:40:09;;;;;;;;;5.00;5.00;;;;;20.43;73.61;100125.16;4856543;29;44845;-81
2023/08/30 05:42:35;;;;;;;;;6.00;5.00;;;;;20.45;73.57;100134.97;4840833;29;44843;-81
2023/08/30 05:45:00;;;;;;;;;6.67;6.00;;;;;20.52;73.73;100131.13;4859296;29;44852;-81
2023/08/30 05:47:26;;;;;;;;;5.00;5.00;;;;;20.52;73.78;100130.22;4840653;29;47097;-80
2023/08/30 05:49:51;;;;;;;;;4.75;4.75;;;;;20.58;73.67;100147.16;4840823;29;44946;-81
2023/08/30 05:52:18;;;;;;;;;5.33;5.33;;;;;20.52;73.47;100141.03;4856974;29;44783;-80
2023/08/30 05:54:44;;;;;;;;;6.33;6.33;;;;;20.55;74.80;100149.03;4858742;29;45189;-80
2023/08/30 05:57:10;;;;;;;;;5.00;4.00;;;;;20.59;74.96;100137.22;4842447;29;47604;-80
2023/08/30 05:59:35;;;;;;;;;6.00;6.00;;;;;20.55;75.43;100136.41;4858743;29;44686;-80
2023/08/30 06:02:01;;;;;;;;;6.33;5.00;;;;;20.62;75.66;100136.19;4825490;29;44820;-80
2023/08/30 06:04:27;;;;;;;;;7.67;5.00;;;;;20.61;75.30;100148.84;4857522;29;45408;-80
2023/08/30 06:17:13;;;;;;;;;8.67;6.67;;;;;20.78;75.45;100148.19;4887040;29;45417;-81
2023/08/30 06:19:39;;;;;;;;;3.00;3.00;;;;;20.86;75.45;100123.59;4873946;29;45078;-81
2023/08/30 06:22:05;;;;;;;;;8.00;8.00;;;;;20.88;75.35;100133.41;4896759;29;44776;-80
2023/08/30 06:24:30;;;;;;;;;6.00;6.00;;;;;20.86;75.45;100153.31;4896226;29;44837;-80
2023/08/30 06:26:56;;;;;;;;;6.00;6.00;;;;;20.88;75.37;100143.34;4892792;29;47176;-80
2023/08/30 06:29:22;;;;;;;;;6.00;4.67;;;;;21.00;75.43;100147.41;4894526;29;45210;-79
2023/08/30 06:31:48;;;;;;;;;5.33;5.33;;;;;20.91;75.49;100151.34;4893727;29;44780;-80
2023/08/30 06:34:13;;;;;;;;;6.67;6.00;;;;;20.92;75.19;100140.44;4893197;29;44952;-81
2023/08/30 06:36:39;;;;;;;;;11.67;9.00;;;;;21.03;74.64;100147.28;4896263;29;45035;-80
2023/08/30 06:39:04;;;;;;;;;5.67;5.67;;;;;21.03;74.38;100142.75;4894658;29;44932;-79
2023/08/30 06:41:30;;;;;;;;;7.67;6.67;;;;;21.02;74.54;100150.91;4894161;29;44908;-80
2023/08/30 06:43:56;;;;;;;;;2.33;2.33;;;;;20.98;75.25;100151.03;4895392;29;44878;-80
2023/08/30 06:46:22;;;;;;;;;3.50;3.50;;;;;21.00;75.52;100152.81;4895541;29;45507;-80
2023/08/30 06:48:50;;;;;;;;;3.00;2.75;;;;;21.01;75.19;100154.59;4895610;29;44779;-80
2023/08/30 06:51:17;;;;;;;;;3.75;3.25;;;;;21.15;75.60;100150.38;4896625;29;44820;-80
2023/08/30 06:53:42;;;;;;;;;3.75;3.75;;;;;21.07;75.31;100159.75;4897078;29;44871;-79
2023/08/30 06:56:08;;;;;;;;;5.00;3.25;;;;;21.08;75.69;100156.97;4896916;29;45275;-81
2023/08/30 06:58:33;;;;;;;;;4.75;4.75;;;;;21.12;75.44;100155.03;4878439;29;44902;-80
2023/08/30 07:00:59;;;;;;;;;4.00;4.00;;;;;21.14;75.19;100151.31;4890715;29;44962;-79
2023/08/30 07:03:27;;;;;;;;;4.00;4.00;;;;;21.35;74.86;100149.59;4862756;29;44821;-81
2023/08/30 07:05:53;;;;;;;;;4.00;4.00;;;;;21.17;74.78;100153.03;4880793;29;46987;-81
2023/08/30 07:08:23;;;;;;;;;2.33;2.33;;;;;21.34;74.31;100168.59;4884212;28;45215;-81
2023/08/30 07:10:52;;;;;;;;;6.67;5.00;;;;;21.20;74.18;100128.56;4879972;29;44824;-81
2023/08/30 07:13:19;;;;;;;;;9.67;9.67;;;;;21.31;73.96;100142.56;4877453;29;44892;-80
2023/08/30 07:16:01;;;;;;;;;6.50;4.00;;;;;21.61;74.07;100146.81;4886904;29;47007;-80
2023/08/30 07:18:27;;;;;;;;;4.00;4.00;;;;;21.43;73.09;100151.13;4879609;29;44714;-79
2023/08/30 07:20:55;;;;;;;;;2.50;2.00;;;;;21.60;73.28;100145.94;4879833;29;45346;-81
2023/08/30 07:23:21;;;;;;;;;3.00;3.00;;;;;21.65;71.91;100156.56;4869482;29;44898;-81
2023/08/30 07:28:25;;;;;;;;;3.75;3.75;;;;;21.87;72.17;100154.72;5357923;23;46453;-80
2023/08/30 07:36:21;;;;;;;;;;;;;;;;;;;;;
2023/08/30 07:38:52;;;;;;;;;3.50;3.50;;;;;22.14;70.69;100149.97;4899202;28;72100;-81
2023/08/30 07:41:36;;;;;;;;;2.75;2.75;;;;;22.30;69.71;100122.22;4932744;28;44806;-82
2023/08/30 07:44:07;;;;;;;;;4.00;4.00;;;;;22.41;69.33;100133.47;4930901;23;46258;-82
2023/08/30 07:46:33;;;;;;;;;3.00;3.00;;;;;22.35;70.06;100137.31;4861590;29;46897;-80
2023/08/30 07:49:04;;;;;;;;;4.00;3.00;;;;;22.56;69.29;100118.34;4859115;29;45455;-81
2023/08/30 07:51:45;;;;;;;;;3.00;3.00;;;;;22.80;68.90;100143.44;4852174;29;45353;-84
2023/08/30 07:56:56;;;;;;;;;4.25;4.25;;;;;23.12;68.07;100166.38;3969356;23;46315;-78
2023/08/30 07:59:22;;;;;;;;;3.00;3.00;;;;;22.97;67.15;100162.53;4934985;28;45423;-80
2023/08/30 08:01:47;;;;;;;;;3.25;3.25;;;;;22.99;66.98;100143.50;4908327;28;45326;-82
2023/08/30 08:04:23;;;;;;;;;6.25;5.00;;;;;23.10;66.76;100121.31;4895344;28;45467;-82
2023/08/30 08:06:56;;;;;;;;;4.25;4.00;;;;;23.16;66.43;100138.16;4894802;29;45391;-82
2023/08/30 08:09:22;;;;;;;;;5.00;5.00;;;;;23.04;66.95;100141.44;5074381;23;46823;-78
2023/08/30 08:11:51;;;;;;;;;4.75;4.50;;;;;23.18;66.33;100138.09;4914721;28;45763;-82
2023/08/30 08:14:17;;;;;;;;;4.00;4.00;;;;;22.99;65.77;100131.75;4898638;29;45421;-83
2023/08/30 08:17:06;;;;;;;;;3.75;3.75;;;;;22.82;66.30;100125.28;4893876;29;46970;-81
2023/08/30 08:19:53;;;;;;;;;3.50;3.50;;;;;23.10;66.17;100145.72;4911468;29;45205;-82
2023/08/30 08:22:22;;;;;;;;;6.50;5.00;;;;;22.84;66.38;100112.53;4898234;29;45380;-82
2023/08/30 08:24:51;;;;;;;;;3.50;3.50;;;;;23.22;66.02;100163.25;4907477;29;45699;-82
2023/08/30 08:27:22;;;;;;;;;6.50;4.00;;;;;23.28;64.00;100133.97;4905690;29;45380;-84
2023/08/30 08:30:05;;;;;;;;;5.00;4.00;;;;;23.49;64.35;100163.75;4898808;29;44876;-80
2023/08/30 08:32:33;;;;;;;;;4.67;4.00;;;;;23.46;64.43;100163.91;4897595;29;44839;-81
2023/08/30 08:35:12;;;;;;;;;6.67;4.00;;;;;23.39;61.63;100119.00;4919361;28;44791;-84
2023/08/30 08:38:11;;;;;;;;;;;;;;;;;;;;;
2023/08/30 08:41:09;;;;;;;;;6.50;4.75;;;;;23.47;59.65;100160.22;4910951;28;44807;-85
2023/08/30 08:43:58;;;;;;;;;6.00;4.75;;;;;23.45;61.76;100172.97;4893126;29;45539;-83
2023/08/30 08:46:44;;;;;;;;;3.00;3.00;;;;;23.39;61.49;100181.41;4880838;29;44908;-85
2023/08/30 08:50:06;;;;;;;;;;;;;;;;;;;;;
2023/08/30 08:52:34;;;;;;;;;3.75;3.00;;;;;23.46;59.73;100177.47;4912704;29;72101;-83
2023/08/30 08:58:07;;;;;;;;;8.25;5.25;;;;;23.29;59.25;100143.91;4908413;29;45448;-85
2023/08/30 09:00:50;;;;;;;;;;;;;;;;;;;;;
2023/08/30 09:03:22;;;;;;;;;2.00;2.00;;;;;23.58;57.99;100147.00;4913151;29;72913;-82
2023/08/30 09:09:25;;;;;;;;;3.33;3.33;;;;;23.59;57.90;100162.31;4831647;29;45500;-81
2023/08/30 09:12:34;;;;;;;;;;;;;;;;;;;;;
2023/08/30 09:18:27;;;;;;;;;4.00;3.00;;;;;23.82;55.49;100158.53;4833773;29;44852;-82
2023/08/30 09:21:31;;;;;;;;;3.00;3.00;;;;;23.87;55.68;100174.56;4831891;29;44853;-82
2023/08/30 09:24:18;;;;;;;;;2.00;1.75;;;;;23.67;54.48;100156.53;4821948;29;46882;-81
2023/08/30 09:27:00;;;;;;;;;4.75;3.50;;;;;23.67;55.10;100162.84;4832840;29;44854;-81
2023/08/30 09:29:34;;;;;;;;;4.25;3.25;;;;;23.68;53.74;100132.03;4834631;29;45518;-80
2023/08/30 09:32:22;;;;;;;;;5.25;3.00;;;;;23.95;54.61;100162.34;4817752;29;44929;-82
2023/08/30 09:34:50;;;;;;;;;3.75;2.00;;;;;24.22;54.59;100170.06;4827974;29;46878;-82
2023/08/30 09:44:04;;;;;;;;;4.25;4.25;;;;;24.82;51.49;100111.66;4758889;29;45006;-81
2023/08/30 09:46:51;;;;;;;;;5.00;3.75;;;;;24.81;51.12;100140.69;4759937;29;45309;-83
2023/08/30 09:49:25;;;;;;;;;5.50;5.50;;;;;24.78;50.46;100140.84;4759813;29;44753;-84
2023/08/30 09:51:54;;;;;;;;;3.75;3.50;;;;;24.54;49.70;100163.00;4759265;29;45338;-83
2023/08/30 09:54:43;;;;;;;;;2.50;2.25;;;;;24.14;50.18;100156.88;4743505;29;45656;-81
2023/08/30 09:57:13;;;;;;;;;3.75;3.75;;;;;23.72;49.42;100127.31;4757911;29;45555;-83
2023/08/30 10:00:44;;;;;;;;;3.75;3.25;;;;;23.52;47.24;100117.47;4753115;29;45529;-82
2023/08/30 10:03:13;;;;;;;;;5.25;4.00;;;;;23.55;49.20;100133.56;4741509;30;45505;-81
2023/08/30 10:09:05;;;;;;;;;4.67;4.00;;;;;23.76;48.19;100135.22;4725277;29;45402;-82
2023/08/30 10:11:40;;;;;;;;;2.50;2.50;;;;;23.65;46.26;100156.63;4745288;29;45427;-81
2023/08/30 10:14:35;;;;;;;;;4.67;4.00;;;;;23.40;48.10;100158.78;4761868;29;44965;-83
2023/08/30 10:17:07;;;;;;;;;7.00;5.00;;;;;23.15;49.07;100111.13;4781529;29;44894;-84
2023/08/30 10:19:41;;;;;;;;;3.00;3.00;;;;;23.43;47.26;100181.22;4854670;29;45323;-82
2023/08/30 10:22:08;;;;;;;;;4.67;2.00;;;;;22.96;46.82;100173.44;4853829;29;44888;-81
2023/08/30 10:25:02;;;;;;;;;2.25;2.25;;;;;23.16;48.29;100184.28;4873663;29;45459;-83
2023/08/30 10:31:13;;;;;;;;;5.33;4.00;;;;;23.30;47.66;100180.91;4875631;29;45043;-81
2023/08/30 10:34:51;;;;;;;;;4.00;3.00;;;;;23.15;46.26;100158.13;4874473;29;44818;-82
2023/08/30 10:37:36;;;;;;;;;3.00;3.00;;;;;23.04;47.75;100129.72;4871875;29;44816;-81
2023/08/30 10:40:08;;;;;;;;;3.00;3.00;;;;;23.32;48.21;100179.00;4868966;29;44857;-81
2023/08/30 10:42:36;;;;;;;;;4.33;4.33;;;;;23.10;47.59;100179.13;4837744;29;45251;-82
2023/08/30 10:45:16;;;;;;;;;4.00;4.00;;;;;23.03;47.74;100138.84;4870460;29;45325;-82
2023/08/30 10:47:47;;;;;;;;;5.00;5.00;;;;;23.41;49.01;100149.66;4854999;29;45379;-82
2023/08/30 10:50:12;;;;;;;;;5.00;4.00;;;;;23.59;49.14;100164.16;4853724;29;45487;-82
2023/08/30 10:52:38;;;;;;;;;6.00;5.00;;;;;23.71;48.35;100161.75;4854915;29;47630;-83
2023/08/30 10:55:15;;;;;;;;;3.00;1.50;;;;;23.63;44.75;100166.69;4870162;29;45361;-81
2023/08/30 10:58:02;;;;;;;;;4.50;3.00;;;;;23.53;46.45;100144.53;4869421;29;44792;-82
2023/08/30 11:00:41;;;;;;;;;4.00;2.67;;;;;23.48;45.71;100148.41;4851855;29;45932;-81
2023/08/30 11:03:10;;;;;;;;;4.25;4.25;;;;;23.46;45.98;100172.91;4853124;29;45359;-81
2023/08/30 11:05:40;;;;;;;;;2.50;2.50;;;;;23.46;45.25;100180.19;4851748;29;45774;-82
2023/08/30 11:08:23;;;;;;;;;4.00;4.00;;;;;23.62;47.85;100161.31;4857989;29;45498;-83
2023/08/30 11:11:23;;;;;;;;;;;;;;;;;;;;;
2023/08/30 11:13:52;;;;;;;;;3.75;3.00;;;;;23.66;47.51;100163.78;4865487;29;73909;-82
2023/08/30 11:16:34;;;;;;;;;3.75;3.25;;;;;23.99;46.74;100159.50;4883049;29;45128;-81
2023/08/30 11:19:10;;;;;;;;;6.50;4.75;;;;;24.20;47.80;100158.41;4892479;29;45356;-83
2023/08/30 11:21:54;;;;;;;;;6.00;4.75;;;;;24.42;47.48;100143.69;4874453;29;44993;-82
2023/08/30 11:24:25;;;;;;;;;4.00;4.00;;;;;24.71;47.46;100155.75;4891503;29;46011;-81
2023/08/30 11:26:56;;;;;;;;;4.50;4.50;;;;;24.68;47.50;100139.59;4891245;29;45276;-82
2023/08/30 11:29:22;;;;;;;;;3.50;2.00;;;;;24.26;46.52;100138.16;4873993;29;45421;-82
2023/08/30 11:31:51;;;;;;;;;3.75;2.50;;;;;24.46;46.85;100159.75;4874245;29;45493;-82
2023/08/30 11:34:33;;;;;;;;;4.00;4.00;;;;;24.44;46.43;100153.53;4894700;28;45452;-82
2023/08/30 11:36:58;;;;;;;;;5.50;4.50;;;;;24.02;46.84;100114.06;4863280;29;45457;-81
2023/08/30 11:39:27;;;;;;;;;5.00;5.00;;;;;24.16;46.63;100133.22;4856280;29;45373;-82
2023/08/30 11:41:53;;;;;;;;;4.50;4.25;;;;;24.22;46.15;100140.19;4869911;29;45420;-83
2023/08/30 11:44:24;;;;;;;;;5.00;5.00;;;;;24.33;45.75;100117.88;4874610;29;48612;-84
2023/08/30 11:47:24;;;;;;;;;5.75;4.75;;;;;24.28;42.33;100122.66;4886621;29;45428;-83
2023/08/30 11:49:51;;;;;;;;;4.25;3.00;;;;;24.31;44.93;100130.66;4858174;29;44891;-82
2023/08/30 11:52:24;;;;;;;;;3.00;1.00;;;;;24.35;44.55;100132.25;4865578;29;45470;-83
2023/08/30 11:55:02;;;;;;;;;6.00;5.00;;;;;24.25;44.76;100110.13;4866091;29;45896;-81
2023/08/30 11:57:36;;;;;;;;;4.00;4.00;;;;;24.29;43.93;100113.56;4877435;29;45511;-84
2023/08/30 12:00:13;;;;;;;;;3.50;3.50;;;;;24.33;45.00;100123.31;4872325;29;44806;-80
2023/08/30 12:03:04;;;;;;;;;;;;;;;;;;;;;
2023/08/30 12:05:35;;;;;;;;;4.00;4.00;;;;;24.63;43.96;100130.81;4894065;29;74427;-80
2023/08/30 12:08:38;;;;;;;;;4.00;4.00;;;;;24.60;44.30;100117.38;4876333;29;45560;-81
2023/08/30 12:11:02;;;;;;;;;8.00;6.00;;;;;24.72;44.73;100119.44;4892023;29;45396;-82
2023/08/30 12:13:39;;;;;;;;;5.00;5.00;;;;;25.00;43.02;100136.97;4892895;29;45513;-81
2023/08/30 12:16:04;;;;;;;;;7.00;6.00;;;;;24.70;43.42;100144.00;4878946;29;46836;-81
2023/08/30 12:18:44;;;;;;;;;5.67;5.67;;;;;24.70;44.60;100153.97;4852714;29;45875;-82
2023/08/30 12:21:09;;;;;;;;;5.67;5.67;;;;;24.59;44.39;100138.25;4868266;29;45537;-81
2023/08/30 12:23:41;;;;;;;;;6.00;6.00;;;;;24.82;44.50;100150.59;4871600;29;45393;-83
2023/08/30 12:26:13;;;;;;;;;5.00;5.00;;;;;25.05;45.62;100137.59;4867659;29;46880;-81
2023/08/30 12:28:40;;;;;;;;;5.00;5.00;;;;;25.13;45.03;100154.38;4871476;29;45628;-82
2023/08/30 12:31:31;;;;;;;;;8.00;6.33;;;;;25.16;43.83;100156.91;4869627;29;45470;-81
2023/08/30 12:34:02;;;;;;;;;5.00;5.00;;;;;24.93;43.83;100148.19;4865572;29;45409;-82
2023/08/30 12:36:28;;;;;;;;;5.00;5.00;;;;;24.86;43.24;100149.47;4855723;29;47162;-82
2023/08/30 12:38:56;;;;;;;;;5.25;5.25;;;;;25.04;44.19;100160.31;4857120;29;45446;-81
2023/08/30 12:41:23;;;;;;;;;5.50;4.50;;;;;24.81;43.72;100151.56;4873018;29;44813;-81